Time;durP1;ratioP1;P1;durP2;ratioP2;P2;SDS_P1;SDS_P2;PMS_P1;PMS_P2;Temp;Humidity;BMP_temperature;BMP_pressure;BME280_temperature;BME280_humidity;BME280_pressure;Samples;Min_cycle;Max_cycle;Signal;HPM_P1;HPM_P2
2023/08/18 00:02:11;;;;;;;4.45;2.17;;;;;;;27.34;37.55;98739.91;5034436;28;20036;-71
2023/08/18 00:04:36;;;;;;;8.00;2.53;;;;;;;27.32;37.93;98737.47;5034824;28;20033;-71
2023/08/18 00:07:02;;;;;;;4.28;2.30;;;;;;;27.25;37.95;98734.84;5050642;28;20573;-71
2023/08/18 00:09:27;;;;;;;10.05;2.50;;;;;;;27.26;38.23;98739.16;5017624;28;20033;-71
2023/08/18 00:11:53;;;;;;;5.50;2.20;;;;;;;27.23;38.23;98736.94;5034168;28;20478;-73
2023/08/18 00:14:18;;;;;;;4.03;2.38;;;;;;;27.21;38.27;98748.91;5017826;28;20029;-72
2023/08/18 00:16:43;;;;;;;4.40;2.55;;;;;;;27.19;38.15;98746.47;5050661;28;20036;-72
2023/08/18 00:19:09;;;;;;;5.88;2.33;;;;;;;27.14;38.09;98732.94;5050618;28;20029;-71
2023/08/18 00:21:34;;;;;;;4.25;2.40;;;;;;;27.16;38.25;98740.75;5034142;28;20075;-72
2023/08/18 00:24:00;;;;;;;5.97;2.17;;;;;;;27.13;38.38;98735.81;5051667;28;20036;-71
2023/08/18 00:26:25;;;;;;;6.43;2.55;;;;;;;27.06;38.10;98736.72;5017146;28;20041;-72
2023/08/18 00:28:51;;;;;;;4.70;2.25;;;;;;;27.07;38.14;98741.03;5017378;28;20488;-71
2023/08/18 00:31:16;;;;;;;5.20;2.40;;;;;;;27.10;38.41;98733.59;5033875;28;20041;-71
2023/08/18 00:33:42;;;;;;;4.35;2.20;;;;;;;27.10;38.44;98731.72;5051311;28;20426;-71
2023/08/18 00:36:07;;;;;;;4.90;2.30;;;;;;;27.11;38.30;98735.25;5033982;28;20036;-71
2023/08/18 00:38:33;;;;;;;4.93;2.20;;;;;;;27.04;38.58;98736.13;5050009;28;20518;-71
2023/08/18 00:40:58;;;;;;;5.22;2.55;;;;;;;27.03;38.33;98736.38;5049835;28;20051;-71
2023/08/18 00:43:24;;;;;;;6.22;2.72;;;;;;;27.04;38.21;98735.31;5032804;28;20496;-73
2023/08/18 00:45:49;;;;;;;4.07;2.03;;;;;;;27.01;38.50;98741.09;5049463;28;20040;-71
2023/08/18 00:48:16;;;;;;;4.55;2.13;;;;;;;26.95;38.37;98737.47;5016269;28;20128;-72
2023/08/18 00:50:42;;;;;;;4.10;2.08;;;;;;;26.92;38.51;98739.78;5032398;28;20158;-71
2023/08/18 00:53:08;;;;;;;4.10;2.30;;;;;;;26.94;38.39;98729.66;5015642;28;20132;-72
2023/08/18 00:55:33;;;;;;;5.68;2.60;;;;;;;26.89;38.73;98733.00;5049448;28;20044;-71
2023/08/18 00:57:58;;;;;;;5.18;2.60;;;;;;;26.87;38.54;98727.06;5032327;28;20040;-71
2023/08/18 01:00:24;;;;;;;4.80;2.40;;;;;;;26.88;39.04;98734.03;5032509;28;20037;-71
2023/08/18 01:02:50;;;;;;;4.50;2.30;;;;;;;26.86;38.90;98728.09;5032941;28;20037;-71
2023/08/18 01:05:16;;;;;;;7.18;2.50;;;;;;;26.81;38.96;98728.78;5032641;28;20052;-71
2023/08/18 01:07:41;;;;;;;5.95;2.55;;;;;;;26.85;39.05;98734.47;5049107;28;20040;-71
2023/08/18 01:10:07;;;;;;;2.80;2.17;;;;;;;26.77;38.84;98727.56;5032911;28;20490;-72
2023/08/18 01:12:59;;;;;;;4.90;2.47;;;;;;;26.79;38.78;98732.69;5032750;28;20487;-71
2023/08/18 01:15:28;;;;;;;3.95;2.50;;;;;;;26.71;38.86;98723.13;5049898;28;20043;-71
2023/08/18 01:17:54;;;;;;;4.25;2.30;;;;;;;26.74;38.84;98728.03;5016090;28;20041;-71
2023/08/18 01:20:21;;;;;;;5.93;2.60;;;;;;;26.72;39.27;98724.75;5032863;28;20033;-71
2023/08/18 01:23:00;;;;;;;5.45;2.45;;;;;;;26.73;39.02;98730.94;5016909;28;20086;-72
2023/08/18 01:25:26;;;;;;;7.65;2.70;;;;;;;26.71;39.06;98731.16;5034817;28;20194;-72
2023/08/18 01:27:52;;;;;;;3.88;2.40;;;;;;;26.67;39.30;98728.09;5016840;28;20049;-71
2023/08/18 01:30:18;;;;;;;4.40;2.50;;;;;;;26.64;39.19;98731.16;5016985;28;20045;-72
2023/08/18 01:32:57;;;;;;;4.35;2.70;;;;;;;26.65;39.51;98732.84;5016572;28;20029;-71
2023/08/18 01:35:25;;;;;;;5.43;2.50;;;;;;;26.63;39.61;98737.59;5018164;28;20035;-71
2023/08/18 01:37:50;;;;;;;4.43;2.78;;;;;;;26.60;39.63;98732.66;5016670;28;20478;-71
2023/08/18 01:40:16;;;;;;;5.13;2.70;;;;;;;26.58;39.75;98731.25;5016365;28;20064;-71
2023/08/18 01:42:41;;;;;;;4.47;2.67;;;;;;;26.48;40.02;98719.19;5033056;28;20036;-72
2023/08/18 01:45:11;;;;;;;9.00;2.72;;;;;;;26.50;40.16;98730.50;5019130;28;20052;-73
2023/08/18 01:47:37;;;;;;;7.35;2.85;;;;;;;26.46;40.13;98725.81;5037626;28;20469;-71
2023/08/18 01:50:02;;;;;;;6.55;2.65;;;;;;;26.45;40.50;98727.66;5054553;28;20025;-71
2023/08/18 01:52:28;;;;;;;6.63;2.80;;;;;;;26.45;40.31;98735.69;5053190;28;20098;-73
2023/08/18 01:54:53;;;;;;;5.90;2.60;;;;;;;26.44;40.43;98733.22;5020390;28;20032;-71
2023/08/18 01:57:19;;;;;;;7.43;2.90;;;;;;;26.44;40.31;98722.53;5036694;28;20047;-71
2023/08/18 01:59:44;;;;;;;7.10;2.70;;;;;;;26.43;40.35;98728.94;5036629;28;20033;-71
2023/08/18 02:02:09;;;;;;;4.05;2.60;;;;;;;26.40;40.76;98730.19;5020241;28;20102;-71
2023/08/18 02:04:35;;;;;;;5.45;2.63;;;;;;;26.40;40.39;98721.34;5020203;28;20029;-71
2023/08/18 02:07:00;;;;;;;4.28;2.70;;;;;;;26.38;40.76;98720.72;5036180;28;20053;-71
2023/08/18 02:09:26;;;;;;;3.60;2.55;;;;;;;26.36;40.89;98718.25;5036661;28;20028;-71
2023/08/18 02:11:51;;;;;;;8.05;3.00;;;;;;;26.38;40.70;98716.22;5036717;28;20045;-71
2023/08/18 02:14:17;;;;;;;5.07;2.58;;;;;;;26.35;40.89;98714.78;5019872;28;20036;-70
2023/08/18 02:16:42;;;;;;;4.80;2.70;;;;;;;26.39;40.79;98723.19;5052872;28;20029;-71
2023/08/18 02:19:08;;;;;;;5.18;2.63;;;;;;;26.38;40.99;98713.53;5020253;28;20052;-71
2023/08/18 02:21:33;;;;;;;4.50;2.60;;;;;;;26.39;41.06;98712.47;5052843;28;20033;-71
2023/08/18 02:23:59;;;;;;;3.83;2.60;;;;;;;26.37;40.94;98709.22;5054049;28;20037;-72
2023/08/18 02:26:24;;;;;;;4.28;2.80;;;;;;;26.39;40.81;98717.81;5035184;28;20523;-71
2023/08/18 02:28:50;;;;;;;4.22;2.72;;;;;;;26.36;40.83;98710.25;5052744;28;20036;-71
2023/08/18 02:31:16;;;;;;;5.40;2.63;;;;;;;26.35;40.98;98719.31;5052602;28;20562;-71
2023/08/18 02:33:41;;;;;;;4.85;2.90;;;;;;;26.34;41.06;98712.31;5052554;28;20036;-71
2023/08/18 02:36:07;;;;;;;11.13;3.25;;;;;;;26.36;41.34;98712.91;5019730;28;20068;-71
2023/08/18 02:38:33;;;;;;;7.43;3.00;;;;;;;26.39;40.96;98717.00;5052513;28;20028;-71
2023/08/18 02:40:59;;;;;;;4.03;2.60;;;;;;;26.40;41.27;98719.47;5036112;28;20087;-71
2023/08/18 02:43:24;;;;;;;4.90;2.75;;;;;;;26.37;41.04;98709.22;5035966;28;20075;-71
2023/08/18 02:45:57;;;;;;;8.25;3.10;;;;;;;26.42;41.04;98717.38;5035781;28;20041;-72
2023/08/18 02:48:26;;;;;;;5.05;2.85;;;;;;;26.40;41.01;98710.63;5019370;28;20404;-71
2023/08/18 02:51:06;;;;;;;4.70;2.67;;;;;;;26.37;40.82;98709.22;5016588;28;20419;-71
2023/08/18 02:53:32;;;;;;;4.32;2.83;;;;;;;26.39;41.09;98707.13;5016198;28;20045;-72
2023/08/18 02:55:58;;;;;;;5.40;2.88;;;;;;;26.35;41.07;98705.94;5022391;28;20033;-73
2023/08/18 02:58:26;;;;;;;9.73;2.92;;;;;;;26.35;41.57;98706.75;5016302;28;20116;-76
2023/08/18 03:00:51;;;;;;;11.85;3.08;;;;;;;26.46;41.94;98707.88;4999836;28;20132;-75
2023/08/18 03:03:17;;;;;;;6.40;3.13;;;;;;;26.52;42.33;98711.56;5032168;28;20572;-73
2023/08/18 03:05:42;;;;;;;25.63;3.47;;;;;;;26.54;42.20;98715.63;5031982;28;20040;-76
2023/08/18 03:08:10;;;;;;;31.08;3.58;;;;;;;26.61;41.96;98720.09;5032242;28;20022;-77
2023/08/18 03:10:36;;;;;;;26.67;3.42;;;;;;;26.60;41.66;98713.94;5017354;28;20074;-74
2023/08/18 03:13:03;;;;;;;13.70;3.05;;;;;;;26.63;42.02;98715.34;5009490;28;20496;-74
2023/08/18 03:15:29;;;;;;;12.02;3.00;;;;;;;26.70;42.01;98718.81;5035792;28;20037;-74
2023/08/18 03:17:55;;;;;;;6.90;3.22;;;;;;;26.71;41.19;98720.44;5051903;28;20032;-70
2023/08/18 03:20:21;;;;;;;8.77;3.40;;;;;;;26.62;41.73;98719.06;5037442;28;20041;-69
2023/08/18 03:22:46;;;;;;;6.03;2.97;;;;;;;26.54;42.69;98712.94;4999345;28;20045;-71
2023/08/18 03:25:12;;;;;;;6.20;2.92;;;;;;;26.60;42.63;98729.16;5032468;28;20040;-75
2023/08/18 03:27:37;;;;;;;7.00;2.88;;;;;;;26.63;42.34;98720.69;5031930;28;20037;-76
2023/08/18 03:30:04;;;;;;;16.35;2.78;;;;;;;26.61;41.80;98712.88;5016955;28;20512;-76
2023/08/18 03:32:30;;;;;;;9.43;3.05;;;;;;;26.66;41.73;98726.47;5046241;28;20029;-75
2023/08/18 03:34:56;;;;;;;13.18;2.95;;;;;;;26.70;41.20;98734.88;5033384;28;20436;-75
2023/08/18 03:37:21;;;;;;;7.53;3.05;;;;;;;26.74;41.04;98722.69;5034443;28;20082;-76
2023/08/18 03:39:47;;;;;;;6.60;3.03;;;;;;;26.82;41.20;98729.56;5034751;28;20072;-76
2023/08/18 03:42:12;;;;;;;8.40;3.00;;;;;;;26.93;40.61;98728.84;5018807;28;20045;-76
2023/08/18 03:44:38;;;;;;;4.13;2.85;;;;;;;27.02;40.38;98724.00;5018633;28;20040;-76
2023/08/18 03:47:03;;;;;;;6.43;2.78;;;;;;;27.03;40.35;98723.78;5018279;28;20119;-76
2023/08/18 03:49:29;;;;;;;5.55;2.90;;;;;;;27.10;40.30;98731.72;5033499;28;20122;-76
2023/08/18 03:51:55;;;;;;;4.20;2.90;;;;;;;27.16;40.30;98724.66;5013883;28;20026;-77
2023/08/18 03:54:20;;;;;;;7.60;2.80;;;;;;;27.17;39.85;98724.44;5031314;28;20037;-77
2023/08/18 03:56:46;;;;;;;4.88;2.90;;;;;;;27.28;39.65;98722.88;5023178;28;20481;-76
2023/08/18 03:59:11;;;;;;;5.60;3.03;;;;;;;27.43;39.52;98733.19;5034638;28;20072;-77
2023/08/18 04:01:37;;;;;;;5.80;2.80;;;;;;;27.83;38.78;98729.13;5034478;28;20025;-76
2023/08/18 04:04:04;;;;;;;6.40;2.80;;;;;;;28.09;38.30;98728.75;5050959;28;20661;-76
2023/08/18 04:06:29;;;;;;;4.53;2.90;;;;;;;28.40;37.35;98728.66;5018061;28;20041;-76
2023/08/18 04:09:06;;;;;;;6.10;3.17;;;;;;;28.77;36.84;98733.81;5018562;28;20067;-77
2023/08/18 04:11:34;;;;;;;4.78;2.63;;;;;;;29.09;36.56;98733.38;5054695;28;20037;-78
2023/08/18 04:14:00;;;;;;;4.43;3.05;;;;;;;29.41;36.07;98723.00;5050849;28;20514;-77
2023/08/18 04:16:25;;;;;;;9.38;3.17;;;;;;;29.64;35.21;98734.72;5050566;28;20412;-78
2023/08/18 04:18:51;;;;;;;5.15;2.90;;;;;;;29.95;34.67;98734.22;5050727;28;20028;-78
2023/08/18 04:21:16;;;;;;;7.30;2.90;;;;;;;30.37;34.30;98727.59;5050515;28;20125;-78
2023/08/18 04:23:42;;;;;;;6.38;2.80;;;;;;;30.62;33.62;98720.97;5051959;28;20021;-78
2023/08/18 04:26:07;;;;;;;9.98;3.15;;;;;;;31.26;32.43;98725.81;5050728;28;20045;-76
2023/08/18 04:28:32;;;;;;;16.48;3.28;;;;;;;32.00;31.97;98726.28;5051900;28;20040;-79
2023/08/18 04:30:58;;;;;;;9.95;3.10;;;;;;;32.72;30.79;98727.63;5016593;28;20762;-78
2023/08/18 04:33:24;;;;;;;7.65;2.50;;;;;;;33.27;30.00;98724.63;5058665;28;20206;-79
2023/08/18 04:35:49;;;;;;;3.90;2.55;;;;;;;33.76;29.17;98723.38;5058047;28;20110;-77
2023/08/18 04:38:16;;;;;;;7.85;2.70;;;;;;;34.32;28.34;98728.00;5017034;28;20064;-79
2023/08/18 04:40:42;;;;;;;8.60;2.20;;;;;;;34.79;27.56;98719.50;5034048;28;20032;-77
2023/08/18 04:43:07;;;;;;;10.02;2.40;;;;;;;35.35;26.97;98728.47;5050169;28;20032;-75
2023/08/18 04:45:33;;;;;;;9.05;2.70;;;;;;;35.83;26.24;98722.47;5050286;28;20049;-78
2023/08/18 04:47:59;;;;;;;7.25;2.35;;;;;;;36.34;25.51;98723.94;5033668;28;20029;-80
2023/08/18 04:50:24;;;;;;;11.15;2.30;;;;;;;36.82;24.97;98725.91;5017023;28;20772;-81
2023/08/18 04:52:50;;;;;;;5.65;2.22;;;;;;;37.29;24.68;98725.03;5033063;28;20080;-81
2023/08/18 04:55:15;;;;;;;6.70;2.00;;;;;;;37.77;24.02;98736.88;5050154;28;20037;-84
2023/08/18 04:57:41;;;;;;;7.70;2.20;;;;;;;38.19;23.17;98722.31;5050073;28;20032;-80
2023/08/18 05:00:09;;;;;;;7.68;2.10;;;;;;;38.62;22.95;98725.88;5036769;28;20041;-81
2023/08/18 05:02:34;;;;;;;8.43;2.22;;;;;;;38.99;22.62;98713.16;5012936;28;20064;-80
2023/08/18 05:05:00;;;;;;;5.75;2.28;;;;;;;39.37;22.05;98712.88;4996057;28;20469;-81
2023/08/18 05:07:26;;;;;;;3.85;1.98;;;;;;;39.79;21.66;98717.06;5013172;28;20076;-82
2023/08/18 05:09:52;;;;;;;3.13;1.87;;;;;;;40.22;21.33;98721.22;5031149;28;20026;-81
2023/08/18 05:12:17;;;;;;;5.80;2.00;;;;;;;40.62;20.94;98731.38;4997320;28;20052;-81
2023/08/18 05:14:42;;;;;;;7.43;2.22;;;;;;;40.94;20.61;98723.91;4997081;28;20586;-80
2023/08/18 05:17:08;;;;;;;6.78;2.03;;;;;;;41.29;20.28;98716.56;4997002;28;20496;-81
2023/08/18 05:19:33;;;;;;;4.72;2.22;;;;;;;41.61;19.86;98719.97;4997243;28;20132;-81
2023/08/18 05:22:00;;;;;;;6.85;2.92;;;;;;;41.95;19.66;98737.50;5013157;28;20048;-81
2023/08/18 05:24:25;;;;;;;9.10;2.50;;;;;;;42.29;19.51;98730.34;4997296;28;20404;-81
2023/08/18 05:26:51;;;;;;;9.85;2.55;;;;;;;42.60;19.35;98729.28;5013579;28;20115;-81
2023/08/18 05:29:16;;;;;;;5.50;2.07;;;;;;;42.85;18.95;98724.78;4996885;28;20044;-81
2023/08/18 05:31:44;;;;;;;6.33;1.97;;;;;;;43.09;18.66;98734.34;5013174;28;20029;-81
2023/08/18 05:34:10;;;;;;;5.88;1.98;;;;;;;43.37;18.40;98732.66;5013437;28;20037;-81
2023/08/18 05:36:36;;;;;;;6.33;1.80;;;;;;;43.50;18.22;98730.00;5029640;28;20063;-81
2023/08/18 05:39:02;;;;;;;7.82;2.10;;;;;;;43.69;18.44;98735.78;5029577;28;20057;-82
2023/08/18 05:41:27;;;;;;;7.33;2.03;;;;;;;43.89;18.22;98742.44;5013325;28;20172;-82
2023/08/18 05:43:53;;;;;;;7.40;2.10;;;;;;;44.06;18.13;98730.44;5013176;28;20079;-81
2023/08/18 05:46:18;;;;;;;10.63;2.00;;;;;;;44.22;18.04;98738.06;5030762;28;20034;-84
2023/08/18 05:48:44;;;;;;;7.90;1.80;;;;;;;44.31;18.20;98733.25;5013039;28;20030;-81
2023/08/18 05:51:10;;;;;;;13.97;2.23;;;;;;;44.43;17.71;98730.50;5013012;28;20115;-81
2023/08/18 05:53:36;;;;;;;6.57;2.17;;;;;;;44.54;17.72;98739.13;5013180;28;20029;-81
2023/08/18 05:56:02;;;;;;;6.97;1.90;;;;;;;44.68;17.81;98733.31;5030961;28;20041;-81
2023/08/18 05:58:28;;;;;;;13.20;2.10;;;;;;;44.74;17.74;98737.44;5013104;28;20350;-81
2023/08/18 06:00:53;;;;;;;8.97;2.47;;;;;;;44.37;18.43;98736.59;4997137;28;20138;-83
2023/08/18 06:03:19;;;;;;;8.40;1.97;;;;;;;44.62;17.99;98737.44;5013251;28;20042;-81
2023/08/18 06:05:46;;;;;;;9.87;2.00;;;;;;;44.77;17.89;98736.75;5029286;28;20477;-81
2023/08/18 06:08:11;;;;;;;5.93;2.10;;;;;;;44.98;18.11;98742.13;5013213;28;20037;-81
2023/08/18 06:10:37;;;;;;;10.07;2.30;;;;;;;45.06;17.66;98743.16;5012922;28;20528;-81
2023/08/18 06:13:02;;;;;;;9.03;2.07;;;;;;;45.13;17.73;98739.78;5013305;28;20030;-80
2023/08/18 06:15:29;;;;;;;4.97;1.80;;;;;;;45.23;17.34;98733.81;5029382;28;20100;-81
2023/08/18 06:17:54;;;;;;;8.48;2.13;;;;;;;45.32;17.95;98731.69;5012962;28;20029;-81
2023/08/18 06:20:20;;;;;;;8.87;1.80;;;;;;;45.47;16.99;98735.72;5012652;28;20481;-80
2023/08/18 06:22:45;;;;;;;5.27;1.60;;;;;;;45.57;17.47;98734.41;5012894;28;20037;-80
2023/08/18 06:25:11;;;;;;;8.60;2.17;;;;;;;45.65;17.17;98738.16;5013349;28;20045;-81
2023/08/18 06:27:36;;;;;;;6.80;1.83;;;;;;;45.70;16.92;98740.66;4996322;28;20125;-81
2023/08/18 06:30:02;;;;;;;6.20;2.00;;;;;;;45.52;17.32;98737.41;5012699;28;20063;-81
2023/08/18 06:32:28;;;;;;;7.07;2.10;;;;;;;45.75;17.40;98743.16;5016152;28;20042;-81
2023/08/18 06:34:53;;;;;;;4.23;1.80;;;;;;;45.82;16.99;98748.09;5033941;28;20033;-81
2023/08/18 06:37:19;;;;;;;5.53;1.80;;;;;;;45.81;16.84;98741.78;5032618;28;20026;-81
2023/08/18 06:39:45;;;;;;;4.80;2.00;;;;;;;45.72;15.97;98748.56;4999721;28;20480;-81
2023/08/18 06:42:11;;;;;;;7.17;2.07;;;;;;;44.80;17.42;98758.06;5032545;28;20783;-79
2023/08/18 06:44:37;;;;;;;11.95;1.95;;;;;;;44.27;17.09;98759.84;5032351;28;20033;-82
2023/08/18 06:47:03;;;;;;;8.63;2.13;;;;;;;44.73;16.90;98762.53;4999354;28;20496;-81
2023/08/18 06:49:28;;;;;;;11.70;2.07;;;;;;;44.00;16.75;98764.00;5032139;28;20048;-80
2023/08/18 06:51:54;;;;;;;12.77;2.10;;;;;;;43.79;17.37;98753.03;5015579;28;20040;-80
2023/08/18 06:54:19;;;;;;;9.63;2.23;;;;;;;43.93;16.78;98767.28;5030992;28;20025;-81
2023/08/18 06:56:45;;;;;;;11.73;2.43;;;;;;;43.90;16.63;98763.28;5032632;28;20378;-81
2023/08/18 06:59:12;;;;;;;13.77;2.40;;;;;;;44.18;17.10;98762.66;5015987;28;20449;-81
2023/08/18 07:01:40;;;;;;;6.65;1.98;;;;;;;44.25;16.15;98759.38;5016121;28;20060;-82
2023/08/18 07:04:06;;;;;;;10.93;2.00;;;;;;;43.76;16.84;98765.50;5016538;28;20042;-82
2023/08/18 07:06:32;;;;;;;7.10;2.10;;;;;;;43.04;17.69;98767.50;4999530;28;20061;-81
2023/08/18 07:08:58;;;;;;;9.03;2.33;;;;;;;42.74;17.85;98768.25;4999594;28;20030;-81
2023/08/18 07:11:23;;;;;;;8.57;2.33;;;;;;;42.45;17.65;98771.75;4999355;28;20080;-82
2023/08/18 07:13:49;;;;;;;10.67;1.90;;;;;;;42.51;17.63;98766.88;5015816;28;20052;-82
2023/08/18 07:16:14;;;;;;;12.77;1.97;;;;;;;42.90;17.51;98771.25;5015764;28;20033;-83
2023/08/18 07:18:40;;;;;;;6.70;2.10;;;;;;;43.12;16.94;98770.16;5032142;28;20029;-81
2023/08/18 07:21:05;;;;;;;16.53;2.00;;;;;;;42.62;18.13;98774.47;5031976;28;20033;-81
2023/08/18 07:23:31;;;;;;;6.57;2.27;;;;;;;42.47;18.25;98764.00;5016089;28;20116;-83
2023/08/18 07:25:56;;;;;;;7.63;2.27;;;;;;;42.97;17.57;98749.59;5032052;28;20030;-83
2023/08/18 07:28:22;;;;;;;9.70;2.20;;;;;;;43.43;17.91;98754.44;5032082;28;20468;-82
2023/08/18 07:30:47;;;;;;;13.10;2.40;;;;;;;43.69;17.93;98755.03;5015044;28;20037;-81
2023/08/18 07:33:13;;;;;;;16.97;2.30;;;;;;;43.63;17.31;98745.38;4999194;28;20049;-81
2023/08/18 07:35:38;;;;;;;12.33;2.03;;;;;;;43.04;18.19;98751.00;5015839;28;20400;-81
2023/08/18 07:38:04;;;;;;;13.13;2.00;;;;;;;42.63;17.71;98754.09;4998677;28;20044;-82
2023/08/18 07:40:29;;;;;;;11.40;2.73;;;;;;;42.18;18.11;98756.50;4999128;28;20132;-80
2023/08/18 07:42:55;;;;;;;6.90;1.97;;;;;;;41.59;18.20;98764.13;5015287;28;20059;-83
2023/08/18 07:45:20;;;;;;;6.87;1.93;;;;;;;41.09;18.54;98761.78;5015447;28;20043;-82
2023/08/18 07:47:46;;;;;;;10.60;2.10;;;;;;;40.48;19.23;98756.09;5031445;28;20028;-82
2023/08/18 07:50:12;;;;;;;10.53;1.90;;;;;;;39.89;19.45;98750.72;5031611;28;20041;-83
2023/08/18 07:52:38;;;;;;;9.18;1.88;;;;;;;39.39;20.22;98744.19;5015041;28;20112;-82
2023/08/18 07:55:04;;;;;;;5.90;2.05;;;;;;;38.98;21.20;98755.97;5015142;28;20045;-81
2023/08/18 07:57:30;;;;;;;13.17;2.07;;;;;;;38.61;22.17;98756.97;5015343;28;20114;-80
2023/08/18 07:59:55;;;;;;;12.02;2.30;;;;;;;38.24;23.50;98759.56;5031214;28;20498;-80
2023/08/18 08:02:21;;;;;;;10.75;2.13;;;;;;;37.83;23.28;98760.22;5031340;28;20037;-80
2023/08/18 08:04:46;;;;;;;8.57;2.22;;;;;;;37.52;24.68;98768.00;5015126;28;20037;-80
2023/08/18 08:07:12;;;;;;;4.95;1.98;;;;;;;37.24;24.25;98765.09;5014378;28;20053;-81
2023/08/18 08:09:38;;;;;;;11.60;1.98;;;;;;;36.99;24.74;98769.75;5014884;28;20095;-81
2023/08/18 08:12:04;;;;;;;6.22;2.03;;;;;;;37.44;24.45;98770.28;4998714;28;20041;-81
2023/08/18 08:14:29;;;;;;;10.13;2.40;;;;;;;37.74;23.44;98764.72;5031231;28;20555;-81
2023/08/18 08:16:55;;;;;;;6.57;2.05;;;;;;;37.97;23.32;98763.78;5014860;28;20041;-80
2023/08/18 08:19:20;;;;;;;7.05;2.05;;;;;;;38.35;22.93;98765.63;4998255;28;20057;-81
2023/08/18 08:21:46;;;;;;;6.13;1.70;;;;;;;38.19;23.84;98765.91;5030934;28;20038;-83
2023/08/18 08:24:12;;;;;;;6.07;2.00;;;;;;;37.63;23.88;98756.66;4998047;28;20075;-83
2023/08/18 08:26:37;;;;;;;9.68;2.13;;;;;;;37.18;24.09;98748.03;5014039;28;20473;-81
2023/08/18 08:29:03;;;;;;;11.20;2.10;;;;;;;36.80;24.06;98755.28;5030402;28;20103;-83
2023/08/18 08:31:28;;;;;;;8.50;2.20;;;;;;;36.51;24.53;98750.69;4997439;28;20048;-84
2023/08/18 08:33:54;;;;;;;7.00;1.95;;;;;;;36.24;24.67;98743.84;5014239;28;20144;-82
2023/08/18 08:36:21;;;;;;;6.75;2.13;;;;;;;35.94;24.73;98755.78;5014158;28;20026;-81
2023/08/18 08:38:47;;;;;;;5.00;1.83;;;;;;;35.60;24.63;98753.84;4997704;28;20053;-81
2023/08/18 08:41:13;;;;;;;7.43;2.20;;;;;;;35.25;25.04;98744.81;4997858;28;20033;-83
2023/08/18 08:43:38;;;;;;;9.32;2.20;;;;;;;35.49;24.77;98739.53;5014025;28;20408;-81
2023/08/18 08:46:04;;;;;;;5.78;2.03;;;;;;;35.38;25.28;98738.78;5014137;28;20216;-80
2023/08/18 08:48:36;;;;;;;9.20;2.38;;;;;;;35.22;25.45;98734.47;5013674;28;20057;-83
2023/08/18 08:51:04;;;;;;;9.07;2.28;;;;;;;35.14;25.92;98760.31;5014448;28;20033;-84
2023/08/18 08:53:38;;;;;;;7.13;2.30;;;;;;;35.25;25.25;98764.63;5013801;28;20033;-83
2023/08/18 08:56:04;;;;;;;4.93;2.08;;;;;;;36.20;24.15;98772.69;5015196;28;20073;-82
2023/08/18 08:58:31;;;;;;;5.03;1.92;;;;;;;36.19;24.22;98769.16;5014106;28;20433;-83
2023/08/18 09:01:00;;;;;;;6.80;2.20;;;;;;;35.94;24.72;98769.38;5014434;28;20033;-85
2023/08/18 09:03:25;;;;;;;4.68;2.10;;;;;;;35.74;24.80;98771.13;5014129;28;20045;-82
2023/08/18 09:05:51;;;;;;;7.75;2.10;;;;;;;35.39;25.04;98772.94;5013590;28;20480;-83
2023/08/18 09:08:16;;;;;;;7.80;2.25;;;;;;;35.07;24.99;98768.72;4997449;28;20033;-81
2023/08/18 09:10:43;;;;;;;7.25;2.35;;;;;;;34.99;25.32;98760.38;5014191;28;20045;-81
2023/08/18 09:13:10;;;;;;;6.68;2.30;;;;;;;34.91;25.13;98762.56;5014438;28;20041;-87
2023/08/18 09:15:36;;;;;;;8.63;2.00;;;;;;;34.90;25.45;98758.25;5014093;28;20028;-82
2023/08/18 09:18:03;;;;;;;8.48;1.92;;;;;;;34.92;25.47;98749.81;4997511;28;20404;-82
2023/08/18 09:20:28;;;;;;;9.68;2.20;;;;;;;35.01;25.31;98748.13;5029980;28;20033;-83
2023/08/18 09:22:55;;;;;;;8.55;2.45;;;;;;;35.12;25.06;98748.91;4997615;28;20132;-82
2023/08/18 09:25:20;;;;;;;9.52;2.50;;;;;;;35.28;25.01;98760.53;5013504;28;20480;-82
2023/08/18 09:27:46;;;;;;;6.95;1.90;;;;;;;35.92;24.42;98761.50;5013000;28;20029;-83
2023/08/18 09:30:11;;;;;;;6.32;2.03;;;;;;;36.39;23.91;98770.13;5010967;28;20112;-81
2023/08/18 09:32:37;;;;;;;6.53;2.60;;;;;;;36.46;24.10;98751.53;5016836;28;20046;-82
2023/08/18 09:35:04;;;;;;;13.88;1.95;;;;;;;36.97;23.92;98746.66;5024807;28;20472;-82
2023/08/18 09:37:33;;;;;;;8.60;2.22;;;;;;;37.30;23.87;98736.72;5015783;28;20036;-84
2023/08/18 09:39:58;;;;;;;5.65;2.00;;;;;;;37.21;24.44;98739.31;5013451;28;20047;-85
2023/08/18 09:42:24;;;;;;;8.73;2.13;;;;;;;37.13;24.36;98739.91;5048698;28;20037;-84
2023/08/18 09:44:49;;;;;;;8.45;2.10;;;;;;;37.51;24.29;98737.22;5042665;28;20445;-84
2023/08/18 09:47:15;;;;;;;7.10;1.80;;;;;;;37.46;24.33;98729.97;5029025;28;20072;-82
2023/08/18 09:49:40;;;;;;;6.45;1.80;;;;;;;37.53;23.97;98718.69;5023180;28;20029;-86
2023/08/18 09:52:06;;;;;;;6.85;2.00;;;;;;;37.85;23.93;98713.63;5014034;28;20061;-85
2023/08/18 09:54:37;;;;;;;3.17;2.00;;;;;;;37.89;24.19;98718.16;4996036;28;20033;-85
2023/08/18 09:57:07;;;;;;;6.00;2.38;;;;;;;37.83;23.87;98719.34;5030888;28;20044;-81
2023/08/18 09:59:38;;;;;;;4.88;2.20;;;;;;;37.99;23.77;98719.91;5026969;28;20129;-79
2023/08/18 10:02:04;;;;;;;5.07;2.00;;;;;;;38.23;22.59;98718.97;5012711;28;20035;-78
2023/08/18 10:04:39;;;;;;;4.13;1.90;;;;;;;38.19;23.24;98725.03;5009949;28;20037;-84
2023/08/18 10:07:05;;;;;;;5.28;2.10;;;;;;;38.10;23.23;98726.00;5016103;28;20080;-85
2023/08/18 10:09:33;;;;;;;7.25;2.08;;;;;;;38.08;23.29;98717.28;5016061;28;20040;-80
2023/08/18 10:12:01;;;;;;;5.43;2.08;;;;;;;38.15;23.06;98723.16;5016573;28;20041;-79
2023/08/18 10:14:27;;;;;;;7.57;2.47;;;;;;;38.01;22.51;98720.41;5016279;28;20056;-87
2023/08/18 10:16:53;;;;;;;5.28;2.10;;;;;;;38.03;22.34;98714.66;5016039;28;20025;-82
2023/08/18 10:20:08;;;;;;;9.73;2.30;;;;;;;38.09;22.03;98718.91;5032237;28;20032;-83
2023/08/18 10:22:34;;;;;;;4.45;2.25;;;;;;;38.24;21.72;98721.41;5016336;28;20057;-76
2023/08/18 10:24:59;;;;;;;4.00;2.03;;;;;;;38.36;21.36;98707.28;5010693;28;20595;-75
2023/08/18 10:27:27;;;;;;;7.65;1.88;;;;;;;38.36;21.25;98707.28;5031374;28;20124;-75
2023/08/18 10:29:59;;;;;;;3.72;1.90;;;;;;;38.45;21.46;98704.66;5050212;28;20033;-74
2023/08/18 10:32:25;;;;;;;5.68;2.10;;;;;;;38.45;21.54;98710.91;5051404;28;20049;-74
2023/08/18 10:34:53;;;;;;;5.75;1.98;;;;;;;38.39;21.42;98705.88;5034453;28;20063;-74
2023/08/18 10:37:22;;;;;;;5.20;2.05;;;;;;;38.19;21.88;98699.66;5019223;28;20025;-73
2023/08/18 10:39:50;;;;;;;4.45;2.05;;;;;;;38.00;21.44;98692.38;5034050;28;20047;-72
2023/08/18 10:42:16;;;;;;;5.43;2.00;;;;;;;37.97;21.64;98695.69;5034648;28;20037;-75
2023/08/18 10:45:03;;;;;;;8.45;2.30;;;;;;;37.72;21.23;98701.53;5034606;28;20040;-73
2023/08/18 10:47:33;;;;;;;5.57;2.38;;;;;;;37.47;20.72;98701.63;5051250;28;20043;-74
2023/08/18 10:49:59;;;;;;;8.07;2.28;;;;;;;37.16;21.34;98701.22;5018389;28;20033;-74
2023/08/18 10:52:28;;;;;;;16.23;2.17;;;;;;;36.89;21.56;98699.94;5001560;28;20472;-74
2023/08/18 10:54:54;;;;;;;6.75;2.33;;;;;;;36.95;21.84;98692.53;5018060;28;20030;-73
2023/08/18 10:57:20;;;;;;;6.43;2.28;;;;;;;37.05;21.83;98681.53;5018048;28;20552;-76
2023/08/18 10:59:45;;;;;;;5.03;2.00;;;;;;;37.15;21.30;98702.34;5015034;28;20121;-74
2023/08/18 11:02:11;;;;;;;5.45;2.17;;;;;;;37.10;21.31;98700.50;5015618;28;20595;-74
2023/08/18 11:04:37;;;;;;;5.00;2.25;;;;;;;37.05;20.74;98702.47;5032103;28;20040;-75
2023/08/18 11:07:04;;;;;;;10.15;2.17;;;;;;;36.99;21.06;98703.66;5015484;28;20551;-76
2023/08/18 11:09:31;;;;;;;7.90;2.13;;;;;;;36.85;21.26;98690.78;5031930;28;20033;-75
2023/08/18 11:11:56;;;;;;;6.03;2.30;;;;;;;36.64;21.19;98689.38;5014131;28;20045;-75
2023/08/18 11:14:22;;;;;;;6.05;2.10;;;;;;;36.40;21.61;98706.47;5017898;28;20573;-76
2023/08/18 11:16:47;;;;;;;9.23;2.50;;;;;;;36.18;22.89;98685.22;5031854;28;20033;-83
2023/08/18 11:19:13;;;;;;;18.75;2.88;;;;;;;36.19;23.93;98714.81;4999203;28;20036;-79
2023/08/18 11:21:40;;;;;;;19.50;2.55;;;;;;;36.14;25.23;98697.78;5035448;28;20040;-78
2023/08/18 11:24:07;;;;;;;8.27;2.45;;;;;;;36.10;24.95;98683.94;5018675;28;20041;-78
2023/08/18 11:26:35;;;;;;;7.95;2.38;;;;;;;36.08;24.96;98696.19;5018984;28;20114;-79
2023/08/18 11:29:00;;;;;;;11.25;2.30;;;;;;;36.04;23.85;98685.06;5035300;28;20036;-77